sensor_id;sensor_type;location;lat;lon;timestamp;P1;durP1;ratioP1;P2;durP2;ratioP2
39918;SDS011;25589;51.552;13.424;2024-02-21T00:00:54;10.32;;;3.65;;
39918;SDS011;25589;51.552;13.424;2024-02-21T00:03:19;10.63;;;3.47;;
39918;SDS011;25589;51.552;13.424;2024-02-21T00:05:45;9.98;;;3.28;;
39918;SDS011;25589;51.552;13.424;2024-02-21T00:08:11;12.85;;;4.65;;
39918;SDS011;25589;51.552;13.424;2024-02-21T00:10:36;13.98;;;3.08;;
39918;SDS011;25589;51.552;13.424;2024-02-21T00:13:02;10.30;;;3.70;;
39918;SDS011;25589;51.552;13.424;2024-02-21T00:15:28;10.35;;;3.10;;
39918;SDS011;25589;51.552;13.424;2024-02-21T00:17:54;15.60;;;3.30;;
39918;SDS011;25589;51.552;13.424;2024-02-21T00:20:19;12.55;;;3.67;;
39918;SDS011;25589;51.552;13.424;2024-02-21T00:22:45;8.27;;;3.45;;
39918;SDS011;25589;51.552;13.424;2024-02-21T00:25:11;11.68;;;3.83;;
39918;SDS011;25589;51.552;13.424;2024-02-21T00:27:36;11.82;;;3.55;;
39918;SDS011;25589;51.552;13.424;2024-02-21T00:30:02;8.95;;;3.75;;
39918;SDS011;25589;51.552;13.424;2024-02-21T00:32:28;11.25;;;3.60;;
39918;SDS011;25589;51.552;13.424;2024-02-21T00:34:54;12.98;;;3.67;;
39918;SDS011;25589;51.552;13.424;2024-02-21T00:37:20;8.60;;;3.38;;
39918;SDS011;25589;51.552;13.424;2024-02-21T00:39:45;13.07;;;3.97;;
39918;SDS011;25589;51.552;13.424;2024-02-21T00:42:11;8.50;;;3.58;;
39918;SDS011;25589;51.552;13.424;2024-02-21T00:44:36;12.13;;;3.47;;
39918;SDS011;25589;51.552;13.424;2024-02-21T00:47:02;11.15;;;3.67;;
39918;SDS011;25589;51.552;13.424;2024-02-21T00:49:28;9.38;;;3.10;;
39918;SDS011;25589;51.552;13.424;2024-02-21T00:51:54;10.10;;;2.80;;
39918;SDS011;25589;51.552;13.424;2024-02-21T00:54:19;9.30;;;2.72;;
39918;SDS011;25589;51.552;13.424;2024-02-21T00:56:45;10.60;;;3.50;;
39918;SDS011;25589;51.552;13.424;2024-02-21T00:59:10;13.65;;;3.28;;
39918;SDS011;25589;51.552;13.424;2024-02-21T01:01:36;12.55;;;3.60;;
39918;SDS011;25589;51.552;13.424;2024-02-21T01:04:01;9.65;;;3.20;;
39918;SDS011;25589;51.552;13.424;2024-02-21T01:06:27;12.20;;;3.80;;
39918;SDS011;25589;51.552;13.424;2024-02-21T01:08:53;14.85;;;3.70;;
39918;SDS011;25589;51.552;13.424;2024-02-21T01:11:18;8.10;;;2.97;;
39918;SDS011;25589;51.552;13.424;2024-02-21T01:13:44;10.77;;;4.22;;
39918;SDS011;25589;51.552;13.424;2024-02-21T01:16:10;11.73;;;3.42;;
39918;SDS011;25589;51.552;13.424;2024-02-21T01:18:38;9.70;;;3.38;;
39918;SDS011;25589;51.552;13.424;2024-02-21T01:21:04;11.30;;;3.25;;
39918;SDS011;25589;51.552;13.424;2024-02-21T01:23:32;12.30;;;3.47;;
39918;SDS011;25589;51.552;13.424;2024-02-21T01:26:01;10.75;;;3.38;;
39918;SDS011;25589;51.552;13.424;2024-02-21T01:28:27;10.63;;;3.85;;
39918;SDS011;25589;51.552;13.424;2024-02-21T01:30:53;11.90;;;3.40;;
39918;SDS011;25589;51.552;13.424;2024-02-21T01:33:18;11.60;;;3.85;;
39918;SDS011;25589;51.552;13.424;2024-02-21T01:35:44;10.60;;;3.25;;
39918;SDS011;25589;51.552;13.424;2024-02-21T01:38:12;11.52;;;3.47;;
39918;SDS011;25589;51.552;13.424;2024-02-21T01:40:38;11.25;;;3.25;;
39918;SDS011;25589;51.552;13.424;2024-02-21T01:43:03;9.95;;;3.05;;
39918;SDS011;25589;51.552;13.424;2024-02-21T01:45:39;9.60;;;3.72;;
39918;SDS011;25589;51.552;13.424;2024-02-21T01:48:05;10.68;;;3.38;;
39918;SDS011;25589;51.552;13.424;2024-02-21T01:50:31;11.23;;;3.58;;
39918;SDS011;25589;51.552;13.424;2024-02-21T01:52:57;14.25;;;4.10;;
39918;SDS011;25589;51.552;13.424;2024-02-21T01:55:23;11.50;;;3.97;;
39918;SDS011;25589;51.552;13.424;2024-02-21T01:57:48;8.25;;;3.70;;
39918;SDS011;25589;51.552;13.424;2024-02-21T02:00:14;9.63;;;3.17;;
39918;SDS011;25589;51.552;13.424;2024-02-21T02:02:41;9.60;;;3.67;;
39918;SDS011;25589;51.552;13.424;2024-02-21T02:05:07;12.90;;;3.70;;
39918;SDS011;25589;51.552;13.424;2024-02-21T02:07:33;7.35;;;3.65;;
39918;SDS011;25589;51.552;13.424;2024-02-21T02:09:58;9.73;;;3.05;;
39918;SDS011;25589;51.552;13.424;2024-02-21T02:12:24;7.90;;;3.47;;
39918;SDS011;25589;51.552;13.424;2024-02-21T02:15:00;8.07;;;3.40;;
39918;SDS011;25589;51.552;13.424;2024-02-21T02:17:26;11.88;;;3.25;;
39918;SDS011;25589;51.552;13.424;2024-02-21T02:19:51;12.20;;;4.05;;
39918;SDS011;25589;51.552;13.424;2024-02-21T02:22:19;7.85;;;3.22;;
39918;SDS011;25589;51.552;13.424;2024-02-21T02:24:47;7.05;;;2.85;;
39918;SDS011;25589;51.552;13.424;2024-02-21T02:27:14;10.43;;;3.40;;
39918;SDS011;25589;51.552;13.424;2024-02-21T02:29:40;7.97;;;3.42;;
39918;SDS011;25589;51.552;13.424;2024-02-21T02:32:05;7.57;;;3.22;;
39918;SDS011;25589;51.552;13.424;2024-02-21T02:34:31;11.73;;;3.38;;
39918;SDS011;25589;51.552;13.424;2024-02-21T02:36:57;12.88;;;3.67;;
39918;SDS011;25589;51.552;13.424;2024-02-21T02:39:22;8.63;;;3.38;;
39918;SDS011;25589;51.552;13.424;2024-02-21T02:41:48;8.75;;;3.58;;
39918;SDS011;25589;51.552;13.424;2024-02-21T02:44:13;11.43;;;3.63;;
39918;SDS011;25589;51.552;13.424;2024-02-21T02:46:42;10.38;;;3.63;;
39918;SDS011;25589;51.552;13.424;2024-02-21T02:49:08;7.88;;;3.22;;
39918;SDS011;25589;51.552;13.424;2024-02-21T02:51:33;7.82;;;3.95;;
39918;SDS011;25589;51.552;13.424;2024-02-21T02:53:59;7.35;;;3.22;;
39918;SDS011;25589;51.552;13.424;2024-02-21T02:56:25;9.20;;;3.10;;
39918;SDS011;25589;51.552;13.424;2024-02-21T02:58:50;7.38;;;3.10;;
39918;SDS011;25589;51.552;13.424;2024-02-21T03:01:17;10.13;;;3.20;;
39918;SDS011;25589;51.552;13.424;2024-02-21T03:03:43;9.63;;;3.33;;
39918;SDS011;25589;51.552;13.424;2024-02-21T03:06:10;6.88;;;2.85;;
39918;SDS011;25589;51.552;13.424;2024-02-21T03:08:36;12.70;;;3.33;;
39918;SDS011;25589;51.552;13.424;2024-02-21T03:11:02;9.85;;;3.40;;
39918;SDS011;25589;51.552;13.424;2024-02-21T03:13:28;11.02;;;4.05;;
39918;SDS011;25589;51.552;13.424;2024-02-21T03:15:53;10.23;;;3.50;;
39918;SDS011;25589;51.552;13.424;2024-02-21T03:18:19;7.95;;;3.08;;
39918;SDS011;25589;51.552;13.424;2024-02-21T03:20:45;10.85;;;3.42;;
39918;SDS011;25589;51.552;13.424;2024-02-21T03:23:10;9.23;;;3.63;;
39918;SDS011;25589;51.552;13.424;2024-02-21T03:25:36;8.00;;;3.65;;
39918;SDS011;25589;51.552;13.424;2024-02-21T03:28:01;10.25;;;2.83;;
39918;SDS011;25589;51.552;13.424;2024-02-21T03:30:27;13.40;;;3.67;;
39918;SDS011;25589;51.552;13.424;2024-02-21T03:32:52;6.05;;;3.42;;
39918;SDS011;25589;51.552;13.424;2024-02-21T03:35:18;11.65;;;3.50;;
39918;SDS011;25589;51.552;13.424;2024-02-21T03:37:44;7.20;;;3.42;;
39918;SDS011;25589;51.552;13.424;2024-02-21T03:40:10;6.68;;;3.08;;
39918;SDS011;25589;51.552;13.424;2024-02-21T03:42:37;7.03;;;3.40;;
39918;SDS011;25589;51.552;13.424;2024-02-21T03:45:03;11.27;;;3.92;;
39918;SDS011;25589;51.552;13.424;2024-02-21T03:47:29;13.13;;;4.07;;
39918;SDS011;25589;51.552;13.424;2024-02-21T03:49:55;11.60;;;3.95;;
39918;SDS011;25589;51.552;13.424;2024-02-21T03:52:21;12.25;;;3.80;;
39918;SDS011;25589;51.552;13.424;2024-02-21T03:54:47;8.40;;;3.85;;
39918;SDS011;25589;51.552;13.424;2024-02-21T03:57:12;8.48;;;3.97;;
39918;SDS011;25589;51.552;13.424;2024-02-21T03:59:38;10.32;;;4.20;;
39918;SDS011;25589;51.552;13.424;2024-02-21T04:02:05;9.55;;;3.97;;
39918;SDS011;25589;51.552;13.424;2024-02-21T04:04:33;9.35;;;3.83;;
39918;SDS011;25589;51.552;13.424;2024-02-21T04:06:59;17.40;;;3.92;;
39918;SDS011;25589;51.552;13.424;2024-02-21T04:09:25;13.10;;;3.70;;
39918;SDS011;25589;51.552;13.424;2024-02-21T04:11:51;10.23;;;3.47;;
39918;SDS011;25589;51.552;13.424;2024-02-21T04:14:17;13.95;;;4.20;;
39918;SDS011;25589;51.552;13.424;2024-02-21T04:16:42;8.63;;;3.50;;
39918;SDS011;25589;51.552;13.424;2024-02-21T04:19:08;11.48;;;4.05;;
39918;SDS011;25589;51.552;13.424;2024-02-21T04:21:34;10.85;;;3.63;;
39918;SDS011;25589;51.552;13.424;2024-02-21T04:23:59;11.90;;;3.50;;
39918;SDS011;25589;51.552;13.424;2024-02-21T04:26:26;47.55;;;7.30;;
39918;SDS011;25589;51.552;13.424;2024-02-21T04:28:52;32.33;;;4.80;;
39918;SDS011;25589;51.552;13.424;2024-02-21T04:31:17;10.65;;;3.72;;
39918;SDS011;25589;51.552;13.424;2024-02-21T04:33:43;14.35;;;4.63;;
39918;SDS011;25589;51.552;13.424;2024-02-21T04:36:08;13.43;;;3.92;;
39918;SDS011;25589;51.552;13.424;2024-02-21T04:38:34;12.90;;;4.00;;
39918;SDS011;25589;51.552;13.424;2024-02-21T04:41:00;15.35;;;4.13;;
39918;SDS011;25589;51.552;13.424;2024-02-21T04:43:25;11.45;;;3.30;;
39918;SDS011;25589;51.552;13.424;2024-02-21T04:45:51;12.45;;;3.60;;
39918;SDS011;25589;51.552;13.424;2024-02-21T04:48:18;10.15;;;3.58;;
39918;SDS011;25589;51.552;13.424;2024-02-21T04:50:44;8.48;;;3.40;;
39918;SDS011;25589;51.552;13.424;2024-02-21T04:53:10;11.50;;;4.15;;
39918;SDS011;25589;51.552;13.424;2024-02-21T04:55:36;11.20;;;3.53;;
39918;SDS011;25589;51.552;13.424;2024-02-21T04:58:01;7.63;;;3.72;;
39918;SDS011;25589;51.552;13.424;2024-02-21T05:00:27;9.65;;;4.05;;
39918;SDS011;25589;51.552;13.424;2024-02-21T05:02:53;9.25;;;3.22;;
39918;SDS011;25589;51.552;13.424;2024-02-21T05:05:18;7.40;;;2.88;;
39918;SDS011;25589;51.552;13.424;2024-02-21T05:07:44;9.57;;;3.40;;
39918;SDS011;25589;51.552;13.424;2024-02-21T05:10:10;8.65;;;3.47;;
39918;SDS011;25589;51.552;13.424;2024-02-21T05:12:35;10.15;;;3.17;;
39918;SDS011;25589;51.552;13.424;2024-02-21T05:15:01;9.05;;;3.30;;
39918;SDS011;25589;51.552;13.424;2024-02-21T05:17:28;11.88;;;3.83;;
39918;SDS011;25589;51.552;13.424;2024-02-21T05:19:53;16.98;;;4.03;;
39918;SDS011;25589;51.552;13.424;2024-02-21T05:22:19;12.15;;;4.50;;
39918;SDS011;25589;51.552;13.424;2024-02-21T05:24:45;11.93;;;3.42;;
39918;SDS011;25589;51.552;13.424;2024-02-21T05:27:10;9.45;;;3.70;;
39918;SDS011;25589;51.552;13.424;2024-02-21T05:29:36;11.68;;;3.60;;
39918;SDS011;25589;51.552;13.424;2024-02-21T05:32:02;11.88;;;3.03;;
39918;SDS011;25589;51.552;13.424;2024-02-21T05:34:28;10.18;;;4.03;;
39918;SDS011;25589;51.552;13.424;2024-02-21T05:36:54;8.95;;;3.72;;
39918;SDS011;25589;51.552;13.424;2024-02-21T05:39:20;8.30;;;3.40;;
39918;SDS011;25589;51.552;13.424;2024-02-21T05:41:47;10.10;;;3.30;;
39918;SDS011;25589;51.552;13.424;2024-02-21T05:44:13;14.18;;;3.70;;
39918;SDS011;25589;51.552;13.424;2024-02-21T05:46:38;12.90;;;3.47;;
39918;SDS011;25589;51.552;13.424;2024-02-21T05:49:04;10.32;;;3.67;;
39918;SDS011;25589;51.552;13.424;2024-02-21T05:51:33;10.00;;;3.63;;
39918;SDS011;25589;51.552;13.424;2024-02-21T05:53:59;10.95;;;3.47;;
39918;SDS011;25589;51.552;13.424;2024-02-21T05:56:25;9.57;;;3.65;;
39918;SDS011;25589;51.552;13.424;2024-02-21T05:58:51;9.20;;;3.53;;
39918;SDS011;25589;51.552;13.424;2024-02-21T06:01:17;10.70;;;3.50;;
39918;SDS011;25589;51.552;13.424;2024-02-21T06:03:43;8.30;;;3.70;;
39918;SDS011;25589;51.552;13.424;2024-02-21T06:06:09;7.90;;;3.75;;
39918;SDS011;25589;51.552;13.424;2024-02-21T06:08:34;11.98;;;3.60;;
39918;SDS011;25589;51.552;13.424;2024-02-21T06:11:00;10.70;;;3.38;;
39918;SDS011;25589;51.552;13.424;2024-02-21T06:13:25;8.40;;;3.50;;
39918;SDS011;25589;51.552;13.424;2024-02-21T06:15:51;10.45;;;3.10;;
39918;SDS011;25589;51.552;13.424;2024-02-21T06:18:17;9.20;;;4.15;;
39918;SDS011;25589;51.552;13.424;2024-02-21T06:20:44;9.05;;;3.33;;
39918;SDS011;25589;51.552;13.424;2024-02-21T06:23:11;9.98;;;3.67;;
39918;SDS011;25589;51.552;13.424;2024-02-21T06:25:37;12.32;;;3.65;;
39918;SDS011;25589;51.552;13.424;2024-02-21T06:28:04;10.23;;;3.55;;
39918;SDS011;25589;51.552;13.424;2024-02-21T06:30:30;12.07;;;4.63;;
39918;SDS011;25589;51.552;13.424;2024-02-21T06:32:56;8.65;;;3.80;;
39918;SDS011;25589;51.552;13.424;2024-02-21T06:35:21;8.57;;;3.53;;
39918;SDS011;25589;51.552;13.424;2024-02-21T06:37:50;8.63;;;3.65;;
39918;SDS011;25589;51.552;13.424;2024-02-21T06:40:25;10.75;;;4.30;;
39918;SDS011;25589;51.552;13.424;2024-02-21T06:42:51;8.65;;;3.75;;
39918;SDS011;25589;51.552;13.424;2024-02-21T06:45:17;11.27;;;4.80;;
39918;SDS011;25589;51.552;13.424;2024-02-21T06:47:42;9.73;;;4.07;;
39918;SDS011;25589;51.552;13.424;2024-02-21T06:50:09;13.82;;;4.40;;
39918;SDS011;25589;51.552;13.424;2024-02-21T06:52:35;9.57;;;4.45;;
39918;SDS011;25589;51.552;13.424;2024-02-21T06:55:01;13.65;;;4.38;;
39918;SDS011;25589;51.552;13.424;2024-02-21T06:57:28;10.15;;;4.00;;
39918;SDS011;25589;51.552;13.424;2024-02-21T06:59:54;9.57;;;3.75;;
39918;SDS011;25589;51.552;13.424;2024-02-21T07:02:23;13.98;;;4.28;;
39918;SDS011;25589;51.552;13.424;2024-02-21T07:04:48;7.85;;;3.88;;
39918;SDS011;25589;51.552;13.424;2024-02-21T07:07:14;10.18;;;4.10;;
39918;SDS011;25589;51.552;13.424;2024-02-21T07:09:40;6.22;;;4.00;;
39918;SDS011;25589;51.552;13.424;2024-02-21T07:12:05;11.40;;;4.70;;
39918;SDS011;25589;51.552;13.424;2024-02-21T07:14:35;8.30;;;3.85;;
39918;SDS011;25589;51.552;13.424;2024-02-21T07:17:01;10.20;;;3.85;;
39918;SDS011;25589;51.552;13.424;2024-02-21T07:19:26;7.15;;;3.90;;
39918;SDS011;25589;51.552;13.424;2024-02-21T07:21:52;10.95;;;4.00;;
39918;SDS011;25589;51.552;13.424;2024-02-21T07:24:18;11.38;;;4.45;;
39918;SDS011;25589;51.552;13.424;2024-02-21T07:26:44;10.20;;;4.32;;
39918;SDS011;25589;51.552;13.424;2024-02-21T07:29:10;13.13;;;4.38;;
39918;SDS011;25589;51.552;13.424;2024-02-21T07:31:40;9.80;;;3.80;;
39918;SDS011;25589;51.552;13.424;2024-02-21T07:34:06;8.40;;;3.65;;
39918;SDS011;25589;51.552;13.424;2024-02-21T07:36:32;11.85;;;3.88;;
39918;SDS011;25589;51.552;13.424;2024-02-21T07:38:57;10.15;;;4.32;;
39918;SDS011;25589;51.552;13.424;2024-02-21T07:41:23;12.95;;;4.38;;
39918;SDS011;25589;51.552;13.424;2024-02-21T07:43:49;8.90;;;3.42;;
39918;SDS011;25589;51.552;13.424;2024-02-21T07:46:15;9.02;;;4.13;;
39918;SDS011;25589;51.552;13.424;2024-02-21T07:48:40;10.30;;;3.88;;
39918;SDS011;25589;51.552;13.424;2024-02-21T07:51:06;12.05;;;4.30;;
39918;SDS011;25589;51.552;13.424;2024-02-21T07:53:32;10.15;;;4.75;;
39918;SDS011;25589;51.552;13.424;2024-02-21T07:55:57;14.82;;;7.10;;
39918;SDS011;25589;51.552;13.424;2024-02-21T07:58:23;7.97;;;4.60;;
39918;SDS011;25589;51.552;13.424;2024-02-21T08:00:48;7.82;;;3.95;;
39918;SDS011;25589;51.552;13.424;2024-02-21T08:03:14;7.65;;;3.70;;
39918;SDS011;25589;51.552;13.424;2024-02-21T08:05:42;10.13;;;3.85;;
39918;SDS011;25589;51.552;13.424;2024-02-21T08:08:08;20.00;;;8.40;;
39918;SDS011;25589;51.552;13.424;2024-02-21T08:10:34;59.53;;;23.23;;
39918;SDS011;25589;51.552;13.424;2024-02-21T08:13:00;28.70;;;11.70;;
39918;SDS011;25589;51.552;13.424;2024-02-21T08:15:25;12.45;;;6.55;;
39918;SDS011;25589;51.552;13.424;2024-02-21T08:17:54;10.95;;;4.75;;
39918;SDS011;25589;51.552;13.424;2024-02-21T08:20:24;12.27;;;5.05;;
39918;SDS011;25589;51.552;13.424;2024-02-21T08:22:50;12.48;;;5.05;;
39918;SDS011;25589;51.552;13.424;2024-02-21T08:25:16;22.63;;;8.60;;
39918;SDS011;25589;51.552;13.424;2024-02-21T08:27:41;39.47;;;13.50;;
39918;SDS011;25589;51.552;13.424;2024-02-21T08:30:07;42.50;;;14.18;;
39918;SDS011;25589;51.552;13.424;2024-02-21T08:32:33;17.05;;;6.60;;
39918;SDS011;25589;51.552;13.424;2024-02-21T08:35:01;18.20;;;6.47;;
39918;SDS011;25589;51.552;13.424;2024-02-21T08:37:27;18.75;;;7.47;;
39918;SDS011;25589;51.552;13.424;2024-02-21T08:39:52;15.52;;;6.20;;
39918;SDS011;25589;51.552;13.424;2024-02-21T08:42:18;21.88;;;8.32;;
39918;SDS011;25589;51.552;13.424;2024-02-21T08:44:44;9.95;;;5.43;;
39918;SDS011;25589;51.552;13.424;2024-02-21T08:47:10;16.85;;;6.32;;
39918;SDS011;25589;51.552;13.424;2024-02-21T08:49:37;13.85;;;5.05;;
39918;SDS011;25589;51.552;13.424;2024-02-21T08:52:03;10.20;;;4.88;;
39918;SDS011;25589;51.552;13.424;2024-02-21T08:54:29;11.77;;;4.40;;
39918;SDS011;25589;51.552;13.424;2024-02-21T08:56:55;9.55;;;4.45;;
39918;SDS011;25589;51.552;13.424;2024-02-21T08:59:21;12.18;;;5.25;;
39918;SDS011;25589;51.552;13.424;2024-02-21T09:01:47;11.38;;;5.32;;
39918;SDS011;25589;51.552;13.424;2024-02-21T09:04:12;12.95;;;4.93;;
39918;SDS011;25589;51.552;13.424;2024-02-21T09:06:38;16.17;;;6.20;;
39918;SDS011;25589;51.552;13.424;2024-02-21T09:09:08;12.77;;;5.05;;
39918;SDS011;25589;51.552;13.424;2024-02-21T09:11:34;13.52;;;5.93;;
39918;SDS011;25589;51.552;13.424;2024-02-21T09:14:00;11.40;;;5.25;;
39918;SDS011;25589;51.552;13.424;2024-02-21T09:16:30;12.30;;;5.60;;
39918;SDS011;25589;51.552;13.424;2024-02-21T09:18:57;12.00;;;5.18;;
39918;SDS011;25589;51.552;13.424;2024-02-21T09:21:23;11.07;;;5.28;;
39918;SDS011;25589;51.552;13.424;2024-02-21T09:23:48;15.15;;;6.20;;
39918;SDS011;25589;51.552;13.424;2024-02-21T09:26:14;12.85;;;5.32;;
39918;SDS011;25589;51.552;13.424;2024-02-21T09:28:42;11.27;;;5.57;;
39918;SDS011;25589;51.552;13.424;2024-02-21T09:31:09;11.23;;;5.60;;
39918;SDS011;25589;51.552;13.424;2024-02-21T09:33:35;9.75;;;5.40;;
39918;SDS011;25589;51.552;13.424;2024-02-21T09:36:02;12.75;;;6.05;;
39918;SDS011;25589;51.552;13.424;2024-02-21T09:38:27;11.73;;;5.03;;
39918;SDS011;25589;51.552;13.424;2024-02-21T09:41:36;11.35;;;5.28;;
39918;SDS011;25589;51.552;13.424;2024-02-21T09:43:45;10.15;;;5.32;;
39918;SDS011;25589;51.552;13.424;2024-02-21T09:46:13;9.93;;;5.18;;
39918;SDS011;25589;51.552;13.424;2024-02-21T09:49:01;8.95;;;5.10;;
39918;SDS011;25589;51.552;13.424;2024-02-21T09:51:47;12.95;;;5.82;;
39918;SDS011;25589;51.552;13.424;2024-02-21T09:54:14;11.07;;;5.32;;
39918;SDS011;25589;51.552;13.424;2024-02-21T09:56:40;14.60;;;6.05;;
39918;SDS011;25589;51.552;13.424;2024-02-21T09:59:06;14.35;;;5.30;;
39918;SDS011;25589;51.552;13.424;2024-02-21T10:01:32;11.80;;;5.78;;
39918;SDS011;25589;51.552;13.424;2024-02-21T10:03:58;13.32;;;5.60;;
39918;SDS011;25589;51.552;13.424;2024-02-21T10:06:24;12.45;;;5.10;;
39918;SDS011;25589;51.552;13.424;2024-02-21T10:08:53;12.13;;;5.32;;
39918;SDS011;25589;51.552;13.424;2024-02-21T10:11:22;9.85;;;5.60;;
39918;SDS011;25589;51.552;13.424;2024-02-21T10:13:49;15.10;;;4.93;;
39918;SDS011;25589;51.552;13.424;2024-02-21T10:16:15;10.57;;;5.43;;
39918;SDS011;25589;51.552;13.424;2024-02-21T10:18:41;11.23;;;5.93;;
39918;SDS011;25589;51.552;13.424;2024-02-21T10:21:07;8.75;;;5.35;;
39918;SDS011;25589;51.552;13.424;2024-02-21T10:23:43;12.13;;;6.05;;
39918;SDS011;25589;51.552;13.424;2024-02-21T10:26:17;9.52;;;5.15;;
39918;SDS011;25589;51.552;13.424;2024-02-21T10:28:44;16.23;;;7.68;;
39918;SDS011;25589;51.552;13.424;2024-02-21T10:31:11;11.90;;;6.32;;
39918;SDS011;25589;51.552;13.424;2024-02-21T10:33:53;12.38;;;5.40;;
39918;SDS011;25589;51.552;13.424;2024-02-21T10:36:23;11.00;;;5.65;;
39918;SDS011;25589;51.552;13.424;2024-02-21T10:38:52;11.38;;;4.97;;
39918;SDS011;25589;51.552;13.424;2024-02-21T10:41:19;9.25;;;5.10;;
39918;SDS011;25589;51.552;13.424;2024-02-21T10:43:52;14.23;;;4.88;;
39918;SDS011;25589;51.552;13.424;2024-02-21T10:46:19;15.07;;;5.07;;
39918;SDS011;25589;51.552;13.424;2024-02-21T10:48:47;9.68;;;4.95;;
39918;SDS011;25589;51.552;13.424;2024-02-21T10:51:19;12.40;;;4.85;;
39918;SDS011;25589;51.552;13.424;2024-02-21T10:53:50;10.82;;;5.13;;
39918;SDS011;25589;51.552;13.424;2024-02-21T10:56:22;9.27;;;4.60;;
39918;SDS011;25589;51.552;13.424;2024-02-21T10:59:00;10.40;;;5.20;;
39918;SDS011;25589;51.552;13.424;2024-02-21T11:01:28;10.15;;;4.53;;
39918;SDS011;25589;51.552;13.424;2024-02-21T11:03:57;12.10;;;4.65;;
39918;SDS011;25589;51.552;13.424;2024-02-21T11:06:26;9.80;;;4.60;;
39918;SDS011;25589;51.552;13.424;2024-02-21T11:11:55;8.55;;;4.35;;
39918;SDS011;25589;51.552;13.424;2024-02-21T11:14:21;13.30;;;5.20;;
39918;SDS011;25589;51.552;13.424;2024-02-21T11:16:47;8.52;;;4.50;;
39918;SDS011;25589;51.552;13.424;2024-02-21T11:19:21;9.55;;;4.82;;
39918;SDS011;25589;51.552;13.424;2024-02-21T11:21:49;10.43;;;5.00;;
39918;SDS011;25589;51.552;13.424;2024-02-21T11:24:32;10.63;;;4.13;;
39918;SDS011;25589;51.552;13.424;2024-02-21T11:29:47;12.40;;;4.63;;
39918;SDS011;25589;51.552;13.424;2024-02-21T11:32:19;11.98;;;4.43;;
39918;SDS011;25589;51.552;13.424;2024-02-21T11:34:53;8.55;;;4.40;;
39918;SDS011;25589;51.552;13.424;2024-02-21T11:37:24;11.77;;;4.63;;
39918;SDS011;25589;51.552;13.424;2024-02-21T11:39:51;11.43;;;5.10;;
39918;SDS011;25589;51.552;13.424;2024-02-21T11:42:18;8.93;;;5.05;;
39918;SDS011;25589;51.552;13.424;2024-02-21T11:44:45;9.48;;;5.15;;
39918;SDS011;25589;51.552;13.424;2024-02-21T11:47:11;10.50;;;5.05;;
39918;SDS011;25589;51.552;13.424;2024-02-21T11:49:43;10.77;;;4.78;;
39918;SDS011;25589;51.552;13.424;2024-02-21T11:52:11;13.60;;;6.50;;
39918;SDS011;25589;51.552;13.424;2024-02-21T11:54:39;15.55;;;5.70;;
39918;SDS011;25589;51.552;13.424;2024-02-21T11:57:05;16.38;;;6.07;;
39918;SDS011;25589;51.552;13.424;2024-02-21T11:59:30;8.85;;;5.03;;
39918;SDS011;25589;51.552;13.424;2024-02-21T12:01:57;7.80;;;4.57;;
39918;SDS011;25589;51.552;13.424;2024-02-21T12:04:28;10.00;;;4.20;;
39918;SDS011;25589;51.552;13.424;2024-02-21T12:06:56;8.10;;;4.80;;
39918;SDS011;25589;51.552;13.424;2024-02-21T12:09:23;9.95;;;4.88;;
39918;SDS011;25589;51.552;13.424;2024-02-21T12:11:59;8.32;;;4.13;;
39918;SDS011;25589;51.552;13.424;2024-02-21T12:14:30;7.95;;;4.20;;
39918;SDS011;25589;51.552;13.424;2024-02-21T12:16:56;8.77;;;4.53;;
39918;SDS011;25589;51.552;13.424;2024-02-21T12:19:22;9.32;;;4.18;;
39918;SDS011;25589;51.552;13.424;2024-02-21T12:21:48;11.10;;;5.07;;
39918;SDS011;25589;51.552;13.424;2024-02-21T12:24:22;10.45;;;4.65;;
39918;SDS011;25589;51.552;13.424;2024-02-21T12:26:49;6.60;;;4.05;;
39918;SDS011;25589;51.552;13.424;2024-02-21T12:29:15;9.95;;;4.60;;
39918;SDS011;25589;51.552;13.424;2024-02-21T12:31:40;9.48;;;4.22;;
39918;SDS011;25589;51.552;13.424;2024-02-21T12:34:06;8.32;;;4.43;;
39918;SDS011;25589;51.552;13.424;2024-02-21T12:36:35;7.72;;;4.32;;
39918;SDS011;25589;51.552;13.424;2024-02-21T12:39:08;10.43;;;4.00;;
39918;SDS011;25589;51.552;13.424;2024-02-21T12:41:36;8.75;;;4.18;;
39918;SDS011;25589;51.552;13.424;2024-02-21T12:44:06;8.82;;;3.72;;
39918;SDS011;25589;51.552;13.424;2024-02-21T12:46:36;7.75;;;3.60;;
39918;SDS011;25589;51.552;13.424;2024-02-21T12:49:03;8.10;;;3.70;;
39918;SDS011;25589;51.552;13.424;2024-02-21T12:51:29;7.57;;;3.80;;
39918;SDS011;25589;51.552;13.424;2024-02-21T12:53:56;8.02;;;3.72;;
39918;SDS011;25589;51.552;13.424;2024-02-21T12:56:22;6.28;;;3.35;;
39918;SDS011;25589;51.552;13.424;2024-02-21T12:58:49;7.55;;;4.07;;
39918;SDS011;25589;51.552;13.424;2024-02-21T13:01:15;12.18;;;4.15;;
39918;SDS011;25589;51.552;13.424;2024-02-21T13:03:41;7.53;;;4.03;;
39918;SDS011;25589;51.552;13.424;2024-02-21T13:06:06;6.85;;;3.63;;
39918;SDS011;25589;51.552;13.424;2024-02-21T13:08:35;7.53;;;3.60;;
39918;SDS011;25589;51.552;13.424;2024-02-21T13:11:02;8.82;;;3.60;;
39918;SDS011;25589;51.552;13.424;2024-02-21T13:13:28;7.63;;;3.88;;
39918;SDS011;25589;51.552;13.424;2024-02-21T13:15:57;9.43;;;3.78;;
39918;SDS011;25589;51.552;13.424;2024-02-21T13:18:25;7.82;;;4.30;;
39918;SDS011;25589;51.552;13.424;2024-02-21T13:20:50;5.82;;;3.53;;
39918;SDS011;25589;51.552;13.424;2024-02-21T13:23:16;6.68;;;3.92;;
39918;SDS011;25589;51.552;13.424;2024-02-21T13:25:42;5.93;;;3.30;;
39918;SDS011;25589;51.552;13.424;2024-02-21T13:28:09;8.30;;;3.58;;
39918;SDS011;25589;51.552;13.424;2024-02-21T13:30:35;7.88;;;3.70;;
39918;SDS011;25589;51.552;13.424;2024-02-21T13:33:00;5.93;;;3.30;;
39918;SDS011;25589;51.552;13.424;2024-02-21T13:35:28;7.70;;;3.08;;
39918;SDS011;25589;51.552;13.424;2024-02-21T13:37:54;7.55;;;3.58;;
39918;SDS011;25589;51.552;13.424;2024-02-21T13:40:19;6.93;;;2.80;;
39918;SDS011;25589;51.552;13.424;2024-02-21T13:42:45;3.92;;;2.80;;
39918;SDS011;25589;51.552;13.424;2024-02-21T13:45:10;5.97;;;3.08;;
39918;SDS011;25589;51.552;13.424;2024-02-21T13:47:36;4.45;;;2.75;;
39918;SDS011;25589;51.552;13.424;2024-02-21T13:50:03;6.65;;;2.80;;
39918;SDS011;25589;51.552;13.424;2024-02-21T13:52:30;5.00;;;2.70;;
39918;SDS011;25589;51.552;13.424;2024-02-21T13:54:56;3.50;;;2.65;;
39918;SDS011;25589;51.552;13.424;2024-02-21T13:57:22;7.25;;;2.78;;
39918;SDS011;25589;51.552;13.424;2024-02-21T13:59:48;5.68;;;2.83;;
39918;SDS011;25589;51.552;13.424;2024-02-21T14:02:13;5.20;;;2.40;;
39918;SDS011;25589;51.552;13.424;2024-02-21T14:04:39;8.90;;;3.05;;
39918;SDS011;25589;51.552;13.424;2024-02-21T14:07:05;6.55;;;2.90;;
39918;SDS011;25589;51.552;13.424;2024-02-21T14:09:30;7.10;;;2.70;;
39918;SDS011;25589;51.552;13.424;2024-02-21T14:11:59;5.13;;;2.60;;
39918;SDS011;25589;51.552;13.424;2024-02-21T14:14:25;7.65;;;2.90;;
39918;SDS011;25589;51.552;13.424;2024-02-21T14:16:50;2.78;;;2.40;;
39918;SDS011;25589;51.552;13.424;2024-02-21T14:19:16;7.90;;;3.33;;
39918;SDS011;25589;51.552;13.424;2024-02-21T14:21:43;6.38;;;2.63;;
39918;SDS011;25589;51.552;13.424;2024-02-21T14:24:09;5.28;;;2.55;;
39918;SDS011;25589;51.552;13.424;2024-02-21T14:26:37;7.60;;;2.33;;
39918;SDS011;25589;51.552;13.424;2024-02-21T14:29:03;6.00;;;2.63;;